Crows Landing, California
Current Conditions -  °F | °C
As of 2:18 AM on Monday 22 Dec 2014 (Local Time) from KMOD Reporting Station
Moderate Fog Moderate Fog  
Wind Chill: 57°   Ceiling: 200
Heat Index: 57°   Visibility: 0.5mi
Dew Point: 55°   Wind: 10mph
Humidity: 93%   Direction: 330°NNW
Pressure: 30.25"   Gusts: NA
Location:  37.39°N, 121.07°W
Report Text: KMOD 221018Z AUTO 33009KT 1/2SM FG VV002 14/13 A3025 RMK AO2 T01390128
Loading
Personal Weather Stations






























Interactive Weather Map New forecast layout! Learn more

10-Day Weather Forecast

Advertisements
Track Severe Weather on mobile